createdAt,value
2022-08-24T00:00:26.009Z,95337.88
2022-08-24T00:02:52.918Z,95337.78
2022-08-24T00:05:21.480Z,95336.25
2022-08-24T00:07:50.006Z,95334.75
2022-08-24T00:10:17.663Z,95339.66
2022-08-24T00:12:44.512Z,95340.31
2022-08-24T00:15:14.321Z,95331.31
2022-08-24T00:17:41.105Z,95331.97
2022-08-24T00:20:09.735Z,95327.34
2022-08-24T00:22:37.507Z,95330.03
2022-08-24T00:25:05.454Z,95327.84
2022-08-24T00:27:32.308Z,95322.88
2022-08-24T00:29:59.305Z,95326.66
2022-08-24T00:32:25.975Z,95324.72
2022-08-24T00:34:59.327Z,95328.56
2022-08-24T00:37:28.775Z,95329.19
2022-08-24T00:39:56.237Z,95323.13
2022-08-24T00:42:24.035Z,95321.78
2022-08-24T00:44:50.737Z,95326.06
2022-08-24T00:47:22.677Z,95322.00
2022-08-24T00:49:52.333Z,95322.97
2022-08-24T00:52:31.325Z,95325.81
2022-08-24T00:55:07.759Z,95319.56
2022-08-24T00:57:40.034Z,95314.78
2022-08-24T01:00:18.944Z,95318.78
2022-08-24T01:02:48.931Z,95327.25
2022-08-24T01:05:18.075Z,95323.19
2022-08-24T01:07:48.523Z,95323.78
2022-08-24T01:10:25.147Z,95324.75
2022-08-24T01:13:00.626Z,95323.91
2022-08-24T01:15:30.536Z,95319.84
2022-08-24T01:18:16.769Z,95323.50
2022-08-24T01:20:48.480Z,95317.16
2022-08-24T01:23:41.470Z,95314.06
2022-08-24T01:26:12.155Z,95322.16
2022-08-24T01:28:44.128Z,95308.19
2022-08-24T01:31:12.070Z,95318.28
2022-08-24T01:33:39.271Z,95314.78
2022-08-24T01:36:20.251Z,95314.13
2022-08-24T01:38:57.195Z,95316.47
2022-08-24T01:41:28.768Z,95316.47
2022-08-24T01:43:58.140Z,95309.50
2022-08-24T01:46:25.376Z,95316.03
2022-08-24T01:48:52.534Z,95304.50
2022-08-24T01:51:21.072Z,95307.19
2022-08-24T01:53:48.554Z,95306.09
2022-08-24T01:56:15.481Z,95300.38
2022-08-24T01:58:47.442Z,95306.91
2022-08-24T02:01:20.685Z,95302.06
2022-08-24T02:03:48.353Z,95295.94
2022-08-24T02:06:19.875Z,95299.19
2022-08-24T02:08:46.858Z,95299.69
2022-08-24T02:11:15.868Z,95302.28
2022-08-24T02:13:42.760Z,95307.31
2022-08-24T02:16:09.514Z,95309.94
2022-08-24T02:18:37.475Z,95315.25
2022-08-24T02:21:08.663Z,95313.25
2022-08-24T02:23:37.473Z,95312.44
2022-08-24T02:26:06.853Z,95315.84
2022-08-24T02:28:34.398Z,95307.97
2022-08-24T02:31:05.920Z,95319.09
2022-08-24T02:33:35.280Z,95312.44
2022-08-24T02:36:02.358Z,95311.47
2022-08-24T02:38:30.644Z,95311.22
2022-08-24T02:40:58.021Z,95304.97
2022-08-24T02:43:25.200Z,95305.06
2022-08-24T02:45:52.609Z,95309.88
2022-08-24T02:48:21.574Z,95306.78
2022-08-24T02:50:51.944Z,95311.78
2022-08-24T02:53:21.298Z,95303.13
2022-08-24T02:55:48.768Z,95312.16
2022-08-24T02:58:17.552Z,95309.19
2022-08-24T03:00:48.504Z,95300.28
2022-08-24T03:03:18.083Z,95305.84
2022-08-24T03:05:44.767Z,95297.69
2022-08-24T03:08:11.673Z,95309.34
2022-08-24T03:10:38.692Z,95301.34
2022-08-24T03:13:05.885Z,95311.16
2022-08-24T03:15:32.729Z,95308.59
2022-08-24T03:17:59.404Z,95309.41
2022-08-24T03:20:27.298Z,95307.22
2022-08-24T03:22:54.054Z,95306.44
2022-08-24T03:25:24.468Z,95309.41
2022-08-24T03:27:52.040Z,95302.75
2022-08-24T03:30:19.736Z,95302.75
2022-08-24T03:32:48.817Z,95301.53
2022-08-24T03:35:18.021Z,95305.88
2022-08-24T03:37:45.051Z,95297.34
2022-08-24T03:40:22.849Z,95302.50
2022-08-24T03:42:54.527Z,95299.25
2022-08-24T03:45:23.019Z,95309.97
2022-08-24T03:47:49.997Z,95304.41
2022-08-24T03:50:17.476Z,95315.53
2022-08-24T03:52:44.365Z,95313.22
2022-08-24T03:55:11.099Z,95315.78
2022-08-24T03:57:37.982Z,95312.00
2022-08-24T04:00:07.307Z,95317.44
2022-08-24T04:02:41.776Z,95310.78
2022-08-24T04:05:12.526Z,95314.44
2022-08-24T04:07:41.369Z,95318.38
2022-08-24T04:10:08.705Z,95324.72
2022-08-24T04:12:35.342Z,95321.47
2022-08-24T04:15:02.428Z,95318.88
2022-08-24T04:17:30.390Z,95329.47
2022-08-24T04:19:58.632Z,95321.63
2022-08-24T04:22:30.936Z,95323.25
2022-08-24T04:24:57.943Z,95334.78
2022-08-24T04:27:27.035Z,95328.41
2022-08-24T04:29:54.200Z,95332.22
2022-08-24T04:32:22.233Z,95327.44
2022-08-24T04:34:49.499Z,95330.16
2022-08-24T04:37:17.642Z,95322.03
2022-08-24T04:39:49.536Z,95323.94
2022-08-24T04:42:26.000Z,95325.69
2022-08-24T04:44:53.989Z,95322.44
2022-08-24T04:47:22.959Z,95335.31
2022-08-24T04:49:49.655Z,95325.28
2022-08-24T04:52:16.855Z,95334.09
2022-08-24T04:54:43.606Z,95337.63
2022-08-24T04:57:18.149Z,95338.03
2022-08-24T04:59:46.750Z,95330.16
2022-08-24T05:02:13.811Z,95335.84
2022-08-24T05:04:40.603Z,95338.25
2022-08-24T05:07:08.246Z,95339.22
2022-08-24T05:09:35.146Z,95346.09
2022-08-24T05:12:02.581Z,95344.19
2022-08-24T05:14:34.143Z,95346.22
2022-08-24T05:17:00.791Z,95343.59
2022-08-24T05:19:30.701Z,95351.97
2022-08-24T05:21:57.387Z,95355.72
2022-08-24T05:24:24.227Z,95351.06
2022-08-24T05:26:53.143Z,95347.19
2022-08-24T05:29:20.811Z,95351.72
2022-08-24T05:31:49.905Z,95350.00
2022-08-24T05:34:18.411Z,95346.59
2022-08-24T05:36:46.548Z,95352.56
2022-08-24T05:39:24.197Z,95351.75
2022-08-24T05:41:55.116Z,95355.31
2022-08-24T05:44:30.674Z,95359.63
2022-08-24T05:47:01.449Z,95371.59
2022-08-24T05:49:28.885Z,95373.97
2022-08-24T05:51:55.679Z,95365.34
2022-08-24T05:54:23.738Z,95373.50
2022-08-24T05:57:16.439Z,95376.72
2022-08-24T05:59:54.259Z,95376.25
2022-08-24T06:02:22.058Z,95373.25
2022-08-24T06:04:49.675Z,95373.78
2022-08-24T06:07:16.993Z,95375.25
2022-08-24T06:09:48.899Z,95368.63
2022-08-24T06:12:16.144Z,95370.56
2022-08-24T06:14:47.926Z,95366.81
2022-08-24T06:17:18.257Z,95369.56
2022-08-24T06:19:45.220Z,95365.94
2022-08-24T06:22:12.046Z,95367.63
2022-08-24T06:24:59.495Z,95365.47
2022-08-24T06:27:29.700Z,95364.41
2022-08-24T06:30:06.618Z,95368.09
2022-08-24T06:32:51.936Z,95363.59
2022-08-24T06:35:27.750Z,95360.09
2022-08-24T06:37:56.505Z,95357.84
2022-08-24T06:40:25.832Z,95357.94
2022-08-24T06:42:53.259Z,95359.06
2022-08-24T06:45:31.077Z,95366.47
2022-08-24T06:47:58.297Z,95368.78
2022-08-24T06:50:25.539Z,95378.03
2022-08-24T06:52:52.471Z,95376.28
2022-08-24T06:55:19.280Z,95384.09
2022-08-24T06:57:49.218Z,95376.84
2022-08-24T07:00:19.873Z,95389.56
2022-08-24T07:02:47.271Z,95388.53
2022-08-24T07:05:14.468Z,95388.75
2022-08-24T07:08:01.935Z,95393.66
2022-08-24T07:10:30.627Z,95395.41
2022-08-24T07:12:58.036Z,95390.94
2022-08-24T07:15:24.930Z,95391.06
2022-08-24T07:18:04.891Z,95395.66
2022-08-24T07:20:32.585Z,95395.69
2022-08-24T07:23:09.492Z,95390.44
2022-08-24T07:25:36.503Z,95394.38
2022-08-24T07:28:09.416Z,95391.59
2022-08-24T07:30:38.750Z,95395.16
2022-08-24T07:33:05.615Z,95391.28
2022-08-24T07:35:33.958Z,95386.28
2022-08-24T07:38:02.179Z,95388.47
2022-08-24T07:40:30.618Z,95384.59
2022-08-24T07:42:58.510Z,95386.84
2022-08-24T07:45:27.264Z,95384.06
2022-08-24T07:47:56.142Z,95392.19
2022-08-24T07:50:43.657Z,95385.97
2022-08-24T07:53:14.878Z,95399.13
2022-08-24T07:55:46.305Z,95395.69
2022-08-24T07:58:13.780Z,95384.78
2022-08-24T08:00:40.572Z,95384.97
2022-08-24T08:03:08.191Z,95383.16
2022-08-24T08:05:38.669Z,95384.22
2022-08-24T08:08:05.977Z,95384.59
2022-08-24T08:10:36.228Z,95388.44
2022-08-24T08:13:06.255Z,95387.16
2022-08-24T08:15:34.395Z,95382.91
2022-08-24T08:18:08.301Z,95382.84
2022-08-24T08:20:39.562Z,95381.91
2022-08-24T08:23:26.193Z,95389.41
2022-08-24T08:25:54.992Z,95386.09
2022-08-24T08:28:35.929Z,95380.28
2022-08-24T08:31:06.447Z,95380.03
2022-08-24T08:33:36.139Z,95377.03
2022-08-24T08:36:10.424Z,95383.00
2022-08-24T08:38:43.338Z,95382.75
2022-08-24T08:41:24.570Z,95383.38
2022-08-24T08:44:35.479Z,95378.38
2022-08-24T08:47:33.628Z,95382.09
2022-08-24T08:50:08.011Z,95373.84
2022-08-24T08:52:48.100Z,95376.78
2022-08-24T08:55:22.981Z,95367.75
2022-08-24T08:58:17.767Z,95371.31
2022-08-24T09:01:04.865Z,95375.22
2022-08-24T09:03:36.767Z,95367.50
2022-08-24T09:07:14.824Z,95370.50
2022-08-24T09:09:52.314Z,95366.38
2022-08-24T09:12:39.116Z,95381.88
2022-08-24T09:15:30.851Z,95377.03
2022-08-24T09:18:18.124Z,95380.97
2022-08-24T09:21:08.836Z,95377.78
2022-08-24T09:23:38.415Z,95375.97
2022-08-24T09:26:53.331Z,95370.91
2022-08-24T09:30:03.954Z,95372.50
2022-08-24T09:32:37.392Z,95376.19
2022-08-24T09:35:26.730Z,95374.03
2022-08-24T09:37:53.926Z,95372.66
2022-08-24T09:40:39.418Z,95376.00
2022-08-24T09:43:34.225Z,95372.66
2022-08-24T09:46:01.221Z,95364.81
2022-08-24T09:49:11.250Z,95364.69
2022-08-24T09:51:49.480Z,95361.28
2022-08-24T09:54:31.705Z,95363.31
2022-08-24T09:57:59.926Z,95364.47
2022-08-24T10:00:39.729Z,95363.34
2022-08-24T10:03:15.760Z,95355.63
2022-08-24T10:06:05.046Z,95363.34
2022-08-24T10:08:44.080Z,95357.94
2022-08-24T10:11:50.506Z,95359.91
2022-08-24T10:14:41.426Z,95347.22
2022-08-24T10:17:22.765Z,95344.66
2022-08-24T10:19:59.282Z,95344.06
2022-08-24T10:23:00.547Z,95347.75
2022-08-24T10:25:51.523Z,95346.06
2022-08-24T10:28:24.673Z,95341.81
2022-08-24T10:30:54.928Z,95339.34
2022-08-24T10:33:29.020Z,95342.25
2022-08-24T10:36:15.835Z,95331.78
2022-08-24T10:39:17.286Z,95340.38
2022-08-24T10:42:37.978Z,95347.34
2022-08-24T10:45:35.717Z,95339.91
2022-08-24T10:48:33.008Z,95335.16
2022-08-24T10:51:20.044Z,95337.25
2022-08-24T10:53:51.953Z,95339.09
2022-08-24T10:56:31.516Z,95328.81
2022-08-24T10:59:02.541Z,95326.53
2022-08-24T11:01:33.928Z,95335.69
2022-08-24T11:04:04.465Z,95331.81
2022-08-24T11:07:05.463Z,95327.97
2022-08-24T11:09:54.468Z,95324.59
2022-08-24T11:12:31.848Z,95331.59
2022-08-24T11:15:02.387Z,95331.59
2022-08-24T11:17:30.321Z,95331.09
2022-08-24T11:19:59.334Z,95326.72
2022-08-24T11:22:41.951Z,95323.78
2022-08-24T11:25:25.306Z,95327.69
2022-08-24T11:27:57.985Z,95322.56
2022-08-24T11:30:27.481Z,95315.75
2022-08-24T11:33:03.614Z,95320.50
2022-08-24T11:35:36.570Z,95318.66
2022-08-24T11:38:09.062Z,95305.63
2022-08-24T11:40:40.769Z,95314.34
2022-08-24T11:43:40.218Z,95311.97
2022-08-24T11:46:15.975Z,95305.66
2022-08-24T11:48:48.682Z,95297.13
2022-08-24T11:51:31.886Z,95307.00
2022-08-24T11:54:27.556Z,95311.81
2022-08-24T11:57:08.467Z,95308.00
2022-08-24T11:59:55.493Z,95306.91
2022-08-24T12:02:30.937Z,95311.63
2022-08-24T12:05:14.325Z,95305.75
2022-08-24T12:07:51.655Z,95307.31
2022-08-24T12:10:37.176Z,95303.75
2022-08-24T12:13:22.327Z,95304.50
2022-08-24T12:16:00.341Z,95306.66
2022-08-24T12:18:45.619Z,95303.25
2022-08-24T12:21:17.076Z,95295.28
2022-08-24T12:23:50.078Z,95305.75
2022-08-24T12:26:29.415Z,95307.03
2022-08-24T12:29:03.181Z,95304.41
2022-08-24T12:31:35.976Z,95304.34
2022-08-24T12:34:10.147Z,95298.41
2022-08-24T12:36:50.003Z,95297.94
2022-08-24T12:39:22.601Z,95292.59
2022-08-24T12:41:54.979Z,95286.03
2022-08-24T12:44:28.357Z,95284.97
2022-08-24T12:46:55.193Z,95279.72
2022-08-24T12:49:33.796Z,95281.53
2022-08-24T12:52:03.876Z,95288.97
2022-08-24T12:54:33.723Z,95280.63
2022-08-24T12:57:02.553Z,95275.56
2022-08-24T12:59:39.884Z,95286.19
2022-08-24T13:02:06.948Z,95284.81
2022-08-24T13:04:34.104Z,95287.66
2022-08-24T13:07:09.780Z,95290.75
2022-08-24T13:09:41.409Z,95286.03
2022-08-24T13:12:33.041Z,95279.94
2022-08-24T13:15:25.756Z,95281.44
2022-08-24T13:18:02.518Z,95277.88
2022-08-24T13:20:36.484Z,95274.66
2022-08-24T13:23:11.355Z,95278.03
2022-08-24T13:25:43.115Z,95283.19
2022-08-24T13:28:30.851Z,95271.66
2022-08-24T13:31:18.569Z,95279.81
2022-08-24T13:34:25.323Z,95270.91
2022-08-24T13:37:10.469Z,95271.06
2022-08-24T13:39:54.522Z,95270.56
2022-08-24T13:42:46.076Z,95271.13
2022-08-24T13:45:37.810Z,95271.03
2022-08-24T13:48:07.551Z,95266.50
2022-08-24T13:51:16.890Z,95261.75
2022-08-24T13:53:58.047Z,95264.84
2022-08-24T13:56:38.183Z,95261.69
2022-08-24T13:59:35.359Z,95269.03
2022-08-24T14:02:14.221Z,95268.66
2022-08-24T14:04:55.470Z,95263.09
2022-08-24T14:07:31.897Z,95264.31
2022-08-24T14:10:07.341Z,95266.25
2022-08-24T14:12:42.425Z,95267.84
2022-08-24T14:15:19.598Z,95253.78
2022-08-24T14:17:53.872Z,95266.72
2022-08-24T14:20:31.020Z,95260.06
2022-08-24T14:23:06.512Z,95255.28
2022-08-24T14:25:35.032Z,95253.38
2022-08-24T14:28:03.234Z,95256.13
2022-08-24T14:30:30.272Z,95257.19
2022-08-24T14:33:00.066Z,95248.03
2022-08-24T14:35:36.454Z,95245.09
2022-08-24T14:38:13.990Z,95249.41
2022-08-24T14:40:56.047Z,95248.09
2022-08-24T14:44:03.801Z,95250.31
2022-08-24T14:46:58.506Z,95256.00
2022-08-24T14:49:26.096Z,95245.84
2022-08-24T14:52:22.268Z,95252.00
2022-08-24T14:55:20.948Z,95254.81
2022-08-24T14:57:57.788Z,95249.41
2022-08-24T15:00:34.797Z,95251.25
2022-08-24T15:03:12.479Z,95257.41
2022-08-24T15:05:44.153Z,95253.72
2022-08-24T15:08:27.694Z,95256.38
2022-08-24T15:11:07.445Z,95260.94
2022-08-24T15:13:40.136Z,95257.25
2022-08-24T15:16:18.750Z,95251.16
2022-08-24T15:19:03.615Z,95254.31
2022-08-24T15:21:36.795Z,95250.81
2022-08-24T15:24:30.961Z,95251.81
2022-08-24T15:27:13.548Z,95245.91
2022-08-24T15:30:07.916Z,95243.75
2022-08-24T15:32:48.878Z,95244.31
2022-08-24T15:35:27.334Z,95245.31
2022-08-24T15:37:55.698Z,95233.81
2022-08-24T15:40:30.068Z,95238.13
2022-08-24T15:43:04.086Z,95237.59
2022-08-24T15:45:32.309Z,95243.09
2022-08-24T15:48:01.827Z,95239.28
2022-08-24T15:50:48.989Z,95243.06
2022-08-24T15:53:28.437Z,95245.25
2022-08-24T15:55:56.178Z,95254.91
2022-08-24T15:58:36.484Z,95251.88
2022-08-24T16:01:28.261Z,95246.38
2022-08-24T16:04:11.801Z,95242.69
2022-08-24T16:06:40.701Z,95247.25
2022-08-24T16:09:14.928Z,95255.25
2022-08-24T16:12:12.763Z,95254.44
2022-08-24T16:14:49.607Z,95251.38
2022-08-24T16:17:25.844Z,95244.84
2022-08-24T16:19:56.001Z,95250.31
2022-08-24T16:22:33.219Z,95253.91
2022-08-24T16:25:17.543Z,95251.53
2022-08-24T16:28:31.904Z,95254.31
2022-08-24T16:31:07.920Z,95253.63
2022-08-24T16:33:43.309Z,95254.16
2022-08-24T16:36:14.523Z,95245.56
2022-08-24T16:38:47.068Z,95254.69
2022-08-24T16:41:17.958Z,95246.16
2022-08-24T16:43:46.061Z,95255.53
2022-08-24T16:46:14.130Z,95259.09
2022-08-24T16:48:41.221Z,95250.03
2022-08-24T16:51:08.069Z,95251.72
2022-08-24T16:53:35.747Z,95252.34
2022-08-24T16:56:04.360Z,95253.13
2022-08-24T16:58:33.883Z,95250.63
2022-08-24T17:01:02.221Z,95251.66
2022-08-24T17:03:29.275Z,95254.34
2022-08-24T17:05:57.129Z,95254.19
2022-08-24T17:08:24.739Z,95252.69
2022-08-24T17:10:51.437Z,95259.06
2022-08-24T17:13:39.287Z,95250.09
2022-08-24T17:16:05.906Z,95251.19
2022-08-24T17:18:34.107Z,95252.13
2022-08-24T17:21:01.726Z,95249.81
2022-08-24T17:23:29.090Z,95254.44
2022-08-24T17:25:56.084Z,95254.06
2022-08-24T17:28:23.203Z,95257.63
2022-08-24T17:30:51.587Z,95251.72
2022-08-24T17:33:18.726Z,95251.25
2022-08-24T17:35:45.797Z,95249.91
2022-08-24T17:38:12.655Z,95250.84
2022-08-24T17:40:39.700Z,95254.25
2022-08-24T17:43:06.947Z,95253.53
2022-08-24T17:45:33.914Z,95257.97
2022-08-24T17:48:00.977Z,95261.13
2022-08-24T17:50:28.840Z,95260.03
2022-08-24T17:53:06.728Z,95262.13
2022-08-24T17:55:33.515Z,95265.16
2022-08-24T17:58:01.629Z,95269.81
2022-08-24T18:00:29.094Z,95264.72
2022-08-24T18:02:56.328Z,95268.91
2022-08-24T18:05:23.441Z,95271.03
2022-08-24T18:07:54.777Z,95276.13
2022-08-24T18:10:28.332Z,95279.50
2022-08-24T18:12:58.221Z,95279.53
2022-08-24T18:15:34.865Z,95286.56
2022-08-24T18:18:08.990Z,95285.38
2022-08-24T18:20:38.795Z,95285.38
2022-08-24T18:23:11.631Z,95288.59
2022-08-24T18:25:47.425Z,95285.78
2022-08-24T18:28:16.021Z,95287.38
2022-08-24T18:30:44.193Z,95290.22
2022-08-24T18:33:11.935Z,95285.38
2022-08-24T18:35:38.585Z,95294.03
2022-08-24T18:38:05.696Z,95297.03
2022-08-24T18:40:33.450Z,95300.25
2022-08-24T18:43:02.042Z,95309.50
2022-08-24T18:45:31.961Z,95302.22
2022-08-24T18:47:59.108Z,95306.88
2022-08-24T18:50:29.004Z,95305.28
2022-08-24T18:52:57.385Z,95309.84
2022-08-24T18:55:25.287Z,95306.78
2022-08-24T18:57:52.138Z,95305.38
2022-08-24T19:00:19.509Z,95315.44
2022-08-24T19:02:47.505Z,95308.56
2022-08-24T19:05:24.916Z,95315.97
2022-08-24T19:07:53.519Z,95318.91
2022-08-24T19:10:25.421Z,95317.88
2022-08-24T19:12:56.455Z,95320.59
2022-08-24T19:15:32.626Z,95323.81
2022-08-24T19:18:08.657Z,95321.44
2022-08-24T19:20:35.557Z,95331.59
2022-08-24T19:23:08.980Z,95328.38
2022-08-24T19:25:37.355Z,95322.19
2022-08-24T19:28:05.448Z,95325.06
2022-08-24T19:30:32.536Z,95332.22
2022-08-24T19:33:00.332Z,95330.41
2022-08-24T19:35:27.659Z,95325.06
2022-08-24T19:37:54.409Z,95324.66
2022-08-24T19:40:21.304Z,95327.25
2022-08-24T19:42:54.519Z,95325.59
2022-08-24T19:45:44.689Z,95326.16
2022-08-24T19:48:12.885Z,95324.94
2022-08-24T19:50:40.251Z,95316.13
2022-08-24T19:53:07.718Z,95324.50
2022-08-24T19:55:34.764Z,95336.25
2022-08-24T19:58:08.796Z,95329.88
2022-08-24T20:00:51.788Z,95326.66
2022-08-24T20:03:19.054Z,95328.75
2022-08-24T20:05:45.954Z,95329.94
2022-08-24T20:08:13.421Z,95328.38
2022-08-24T20:10:41.223Z,95331.25
2022-08-24T20:13:08.338Z,95333.94
2022-08-24T20:15:35.067Z,95326.72
2022-08-24T20:18:02.163Z,95324.47
2022-08-24T20:20:31.236Z,95323.06
2022-08-24T20:23:03.358Z,95324.16
2022-08-24T20:25:30.543Z,95323.94
2022-08-24T20:28:25.533Z,95326.44
2022-08-24T20:30:48.091Z,95325.66
2022-08-24T20:33:17.550Z,95325.19
2022-08-24T20:35:45.260Z,95330.41
2022-08-24T20:38:16.140Z,95330.97
2022-08-24T20:40:42.908Z,95328.91
2022-08-24T20:43:10.124Z,95335.38
2022-08-24T20:45:41.237Z,95333.84
2022-08-24T20:48:12.158Z,95339.88
2022-08-24T20:50:43.462Z,95336.34
2022-08-24T20:53:11.646Z,95339.06
2022-08-24T20:55:39.884Z,95328.81
2022-08-24T20:58:06.786Z,95329.25
2022-08-24T21:00:34.112Z,95324.75
2022-08-24T21:03:01.002Z,95332.59
2022-08-24T21:05:28.194Z,95338.25
2022-08-24T21:07:57.995Z,95325.91
2022-08-24T21:10:27.096Z,95325.91
2022-08-24T21:12:54.014Z,95322.34
2022-08-24T21:15:22.792Z,95325.13
2022-08-24T21:17:50.614Z,95318.03
2022-08-24T21:20:18.581Z,95326.28
2022-08-24T21:22:48.408Z,95323.88
2022-08-24T21:25:17.107Z,95318.22
2022-08-24T21:27:46.596Z,95325.66
2022-08-24T21:30:20.243Z,95325.41
2022-08-24T21:33:06.324Z,95328.53
2022-08-24T21:35:34.579Z,95325.69
2022-08-24T21:38:01.706Z,95328.63
2022-08-24T21:40:29.943Z,95323.78
2022-08-24T21:42:56.954Z,95320.91
2022-08-24T21:45:24.130Z,95322.88
2022-08-24T21:47:50.971Z,95321.78
2022-08-24T21:50:18.730Z,95324.03
2022-08-24T21:52:51.197Z,95315.22
2022-08-24T21:55:21.841Z,95320.34
2022-08-24T21:57:49.517Z,95316.91
2022-08-24T22:00:19.059Z,95321.16
2022-08-24T22:02:48.326Z,95329.13
2022-08-24T22:05:16.600Z,95322.50
2022-08-24T22:07:43.965Z,95318.91
2022-08-24T22:10:12.080Z,95310.75
2022-08-24T22:12:41.046Z,95309.91
2022-08-24T22:15:12.004Z,95316.09
2022-08-24T22:17:38.795Z,95309.19
2022-08-24T22:20:07.524Z,95300.59
2022-08-24T22:22:36.704Z,95304.53
2022-08-24T22:25:05.758Z,95304.53
2022-08-24T22:27:33.138Z,95307.66
2022-08-24T22:30:00.169Z,95296.53
2022-08-24T22:32:26.908Z,95295.91
2022-08-24T22:34:53.586Z,95298.69
2022-08-24T22:37:20.288Z,95284.50
2022-08-24T22:39:47.274Z,95290.59
2022-08-24T22:42:14.014Z,95291.41
2022-08-24T22:44:40.725Z,95286.19
2022-08-24T22:47:13.145Z,95284.59
2022-08-24T22:49:43.897Z,95279.56
2022-08-24T22:52:13.234Z,95281.16
2022-08-24T22:54:41.471Z,95281.78
2022-08-24T22:57:09.205Z,95281.78
2022-08-24T22:59:41.570Z,95281.78
2022-08-24T23:02:11.812Z,95278.38
2022-08-24T23:04:43.145Z,95279.56
2022-08-24T23:07:10.272Z,95274.34
2022-08-24T23:09:44.111Z,95273.72
2022-08-24T23:12:14.614Z,95269.47
2022-08-24T23:14:41.760Z,95268.31
2022-08-24T23:17:08.576Z,95265.09
2022-08-24T23:19:54.450Z,95267.06
2022-08-24T23:22:21.350Z,95267.06
2022-08-24T23:24:48.407Z,95261.84
2022-08-24T23:27:17.778Z,95272.78
2022-08-24T23:29:46.351Z,95265.34
2022-08-24T23:32:14.044Z,95257.09
2022-08-24T23:34:46.967Z,95266.31
2022-08-24T23:37:15.599Z,95255.13
2022-08-24T23:39:43.065Z,95252.06
2022-08-24T23:42:09.820Z,95257.97
2022-08-24T23:44:36.950Z,95249.72
2022-08-24T23:47:04.433Z,95252.84
2022-08-24T23:49:31.217Z,95245.41
2022-08-24T23:51:58.377Z,95248.00
2022-08-24T23:54:25.997Z,95250.50
2022-08-24T23:56:54.298Z,95236.53
2022-08-24T23:59:28.067Z,95245.03
